createdAt,value
2018-07-27T00:00:18.059Z,95083.91
2018-07-27T00:02:46.779Z,95078.27
2018-07-27T00:05:15.436Z,95077.06
2018-07-27T00:07:44.355Z,95028.08
2018-07-27T00:10:15.525Z,95079.42
2018-07-27T00:12:44.176Z,95076.51
2018-07-27T00:15:13.326Z,95080.98
2018-07-27T00:17:42.270Z,95077.06
2018-07-27T00:20:11.051Z,95074.94
2018-07-27T00:22:40.153Z,95025.53
2018-07-27T00:25:08.809Z,95087.63
2018-07-27T00:27:37.516Z,95082.34
2018-07-27T00:30:07.702Z,95074.92
2018-07-27T00:32:36.683Z,95083.89
2018-07-27T00:35:05.423Z,95077.27
2018-07-27T00:37:34.105Z,95081.56
2018-07-27T00:40:02.791Z,95087.03
2018-07-27T00:42:31.446Z,95081.56
2018-07-27T00:45:00.122Z,95080.41
2018-07-27T00:47:28.754Z,95082.94
2018-07-27T00:49:57.434Z,95084.69
2018-07-27T00:52:26.068Z,95079.63
2018-07-27T00:54:54.724Z,95081.38
2018-07-27T00:57:23.665Z,95079.20
2018-07-27T00:59:52.331Z,95081.92
2018-07-27T01:02:21.038Z,95081.94
2018-07-27T01:04:49.812Z,95076.89
2018-07-27T01:07:18.974Z,95085.47
2018-07-27T01:09:47.992Z,95081.17
2018-07-27T01:12:16.663Z,95088.59
2018-07-27T01:14:45.280Z,95081.96
2018-07-27T01:17:14.565Z,95089.19
2018-07-27T01:19:43.581Z,95092.88
2018-07-27T01:22:12.274Z,95085.46
2018-07-27T01:24:40.929Z,95085.99
2018-07-27T01:27:09.616Z,95088.71
2018-07-27T01:29:38.267Z,95087.88
2018-07-27T01:32:07.213Z,95087.86
2018-07-27T01:34:35.866Z,95083.16
2018-07-27T01:37:04.834Z,95083.74
2018-07-27T01:39:33.479Z,95081.38
2018-07-27T01:42:02.188Z,95082.75
2018-07-27T01:44:30.822Z,95082.14
2018-07-27T01:46:59.815Z,95080.96
2018-07-27T01:49:28.480Z,95083.48
2018-07-27T01:51:57.139Z,95081.33
2018-07-27T01:54:25.783Z,95079.36
2018-07-27T01:56:54.426Z,95080.11
2018-07-27T01:59:23.058Z,95079.15
2018-07-27T02:01:51.770Z,95075.81
2018-07-27T02:04:20.447Z,95076.63
2018-07-27T02:06:49.193Z,95078.20
2018-07-27T02:09:18.162Z,95070.02
2018-07-27T02:11:47.151Z,95066.11
2018-07-27T02:14:15.854Z,95071.77
2018-07-27T02:16:44.818Z,95076.66
2018-07-27T02:19:13.519Z,95086.78
2018-07-27T02:21:42.482Z,95079.96
2018-07-27T02:24:11.191Z,95072.75
2018-07-27T02:26:39.914Z,95071.56
2018-07-27T02:29:08.853Z,95068.66
2018-07-27T02:31:37.524Z,95067.13
2018-07-27T02:34:06.529Z,95067.13
2018-07-27T02:36:35.465Z,95064.38
2018-07-27T02:39:06.105Z,95067.66
2018-07-27T02:41:34.762Z,95069.02
2018-07-27T02:44:03.459Z,95069.07
2018-07-27T02:46:32.165Z,95071.02
2018-07-27T02:49:01.333Z,95072.72
2018-07-27T02:51:30.069Z,95078.41
2018-07-27T02:53:58.710Z,95077.44
2018-07-27T02:56:27.381Z,95078.23
2018-07-27T02:58:56.029Z,95087.55
2018-07-27T03:01:24.839Z,95080.33
2018-07-27T03:03:53.867Z,95087.91
2018-07-27T03:06:22.588Z,95080.51
2018-07-27T03:08:51.252Z,95077.57
2018-07-27T03:11:20.060Z,95079.17
2018-07-27T03:13:49.025Z,95078.78
2018-07-27T03:16:18.001Z,95081.72
2018-07-27T03:18:46.691Z,95083.66
2018-07-27T03:21:15.401Z,95075.78
2018-07-27T03:23:44.400Z,95073.47
2018-07-27T03:26:13.371Z,95074.66
2018-07-27T03:28:42.031Z,95071.90
2018-07-27T03:31:10.693Z,95077.96
2018-07-27T03:33:39.402Z,95073.47
2018-07-27T03:36:08.067Z,95069.05
2018-07-27T03:38:37.854Z,95074.87
2018-07-27T03:41:06.558Z,95079.54
2018-07-27T03:43:35.248Z,95080.15
2018-07-27T03:46:04.010Z,95077.27
2018-07-27T03:48:33.258Z,95002.08
2018-07-27T03:51:01.962Z,95073.60
2018-07-27T03:53:30.726Z,95076.94
2018-07-27T03:55:59.423Z,95077.72
2018-07-27T03:58:28.175Z,95080.84
2018-07-27T04:00:56.831Z,95088.32
2018-07-27T04:03:25.469Z,95087.55
2018-07-27T04:05:54.426Z,95086.00
2018-07-27T04:08:23.085Z,95082.27
2018-07-27T04:10:51.703Z,95089.45
2018-07-27T04:13:20.388Z,95091.08
2018-07-27T04:15:49.764Z,95089.52
2018-07-27T04:18:19.111Z,95094.41
2018-07-27T04:20:48.052Z,95085.45
2018-07-27T04:23:16.776Z,95084.50
2018-07-27T04:25:45.414Z,95087.81
2018-07-27T04:28:14.113Z,95086.45
2018-07-27T04:30:42.830Z,95086.25
2018-07-27T04:33:11.486Z,95089.76
2018-07-27T04:35:40.174Z,95089.95
2018-07-27T04:38:09.140Z,95091.33
2018-07-27T04:40:37.810Z,95093.09
2018-07-27T04:43:06.528Z,95087.63
2018-07-27T04:45:35.202Z,95089.57
2018-07-27T04:48:03.916Z,95091.72
2018-07-27T04:50:32.973Z,95092.91
2018-07-27T04:53:01.662Z,95099.75
2018-07-27T04:55:30.682Z,95093.69
2018-07-27T04:57:59.637Z,95089.58
2018-07-27T05:00:28.310Z,95101.69
2018-07-27T05:02:56.971Z,95098.70
2018-07-27T05:05:25.672Z,95093.22
2018-07-27T05:07:54.612Z,95090.93
2018-07-27T05:10:27.455Z,95096.02
2018-07-27T05:12:56.138Z,95099.91
2018-07-27T05:15:25.175Z,95094.41
2018-07-27T05:17:53.849Z,95096.77
2018-07-27T05:20:22.859Z,95102.22
2018-07-27T05:22:51.487Z,95102.42
2018-07-27T05:25:20.195Z,95096.33
2018-07-27T05:27:48.896Z,95105.52
2018-07-27T05:30:17.743Z,95104.88
2018-07-27T05:32:46.457Z,94951.68
2018-07-27T05:35:15.179Z,95101.00
2018-07-27T05:37:43.858Z,95104.52
2018-07-27T05:40:12.588Z,95109.59
2018-07-27T05:42:41.270Z,95108.84
2018-07-27T05:45:10.020Z,95109.43
2018-07-27T05:47:38.738Z,95104.39
2018-07-27T05:50:07.677Z,95113.95
2018-07-27T05:52:36.390Z,95108.42
2018-07-27T05:55:05.507Z,95109.56
2018-07-27T05:57:34.542Z,95112.89
2018-07-27T06:00:04.549Z,95117.81
2018-07-27T06:02:33.217Z,95111.95
2018-07-27T06:05:02.028Z,95111.29
2018-07-27T06:07:30.746Z,95113.86
2018-07-27T06:09:59.453Z,95116.59
2018-07-27T06:12:28.253Z,95119.74
2018-07-27T06:14:57.003Z,95118.52
2018-07-27T06:17:26.010Z,95116.01
2018-07-27T06:19:55.020Z,95111.95
2018-07-27T06:22:24.018Z,95121.87
2018-07-27T06:24:54.054Z,95123.90
2018-07-27T06:27:22.787Z,95121.95
2018-07-27T06:29:51.657Z,95122.28
2018-07-27T06:32:20.547Z,95124.48
2018-07-27T06:34:49.219Z,95124.19
2018-07-27T06:37:18.540Z,95131.17
2018-07-27T06:39:47.310Z,95120.74
2018-07-27T06:42:16.874Z,95133.02
2018-07-27T06:44:46.047Z,95136.45
2018-07-27T06:47:14.710Z,95130.42
2018-07-27T06:49:43.701Z,95137.13
2018-07-27T06:52:12.391Z,95130.30
2018-07-27T06:54:41.076Z,95124.79
2018-07-27T06:57:10.234Z,95128.38
2018-07-27T06:59:38.911Z,95132.31
2018-07-27T07:02:07.825Z,95129.83
2018-07-27T07:04:36.526Z,95129.11
2018-07-27T07:07:05.314Z,95132.83
2018-07-27T07:09:34.035Z,95130.31
2018-07-27T07:12:02.726Z,95134.73
2018-07-27T07:14:31.713Z,95138.70
2018-07-27T07:17:00.426Z,95142.57
2018-07-27T07:19:29.437Z,95145.39
2018-07-27T07:21:59.090Z,95142.30
2018-07-27T07:24:27.734Z,95147.70
2018-07-27T07:26:56.403Z,95150.62
2018-07-27T07:29:25.403Z,95155.03
2018-07-27T07:31:54.411Z,95145.53
2018-07-27T07:34:23.366Z,95141.89
2018-07-27T07:36:52.345Z,95141.44
2018-07-27T07:39:21.263Z,95140.89
2018-07-27T07:41:49.921Z,95139.88
2018-07-27T07:44:18.607Z,95139.34
2018-07-27T07:46:47.350Z,95139.52
2018-07-27T07:49:16.467Z,95138.15
2018-07-27T07:51:45.157Z,95129.00
2018-07-27T07:54:13.842Z,95132.17
2018-07-27T07:56:42.587Z,95133.51
2018-07-27T07:59:11.416Z,95120.53
2018-07-27T08:01:40.581Z,95124.54
2018-07-27T08:04:09.280Z,95125.25
2018-07-27T08:06:37.953Z,95127.22
2018-07-27T08:09:08.764Z,95124.25
2018-07-27T08:11:37.698Z,95123.66
2018-07-27T08:14:06.634Z,95115.59
2018-07-27T08:16:35.391Z,95118.48
2018-07-27T08:19:04.133Z,95119.88
2018-07-27T08:21:32.853Z,95126.70
2018-07-27T08:24:02.821Z,95113.09
2018-07-27T08:26:43.918Z,95114.48
2018-07-27T08:29:13.722Z,95111.88
2018-07-27T08:31:43.523Z,95108.92
2018-07-27T08:34:13.131Z,95103.59
2018-07-27T08:36:42.270Z,95107.39
2018-07-27T08:39:13.339Z,95093.55
2018-07-27T08:41:42.696Z,95096.23
2018-07-27T08:44:12.935Z,95093.06
2018-07-27T08:46:42.397Z,95088.38
2018-07-27T08:49:11.644Z,95013.67
2018-07-27T08:51:40.685Z,95097.45
2018-07-27T08:54:10.210Z,95098.88
2018-07-27T08:56:39.539Z,95093.14
2018-07-27T08:59:08.953Z,95092.84
2018-07-27T09:01:37.894Z,95100.71
2018-07-27T09:04:07.590Z,95090.28
2018-07-27T09:06:36.980Z,95087.57
2018-07-27T09:09:14.500Z,95080.98
2018-07-27T09:11:43.636Z,95082.64
2018-07-27T09:14:13.095Z,95082.48
2018-07-27T09:16:42.251Z,95080.16
2018-07-27T09:19:11.225Z,95070.66
2018-07-27T09:21:40.728Z,95071.86
2018-07-27T09:24:09.802Z,95065.61
2018-07-27T09:26:38.643Z,95068.44
2018-07-27T09:29:07.565Z,95056.91
2018-07-27T09:31:36.370Z,95056.70
2018-07-27T09:34:05.789Z,95058.30
2018-07-27T09:36:34.928Z,95044.53
2018-07-27T09:39:04.844Z,95044.30
2018-07-27T09:41:33.598Z,95029.63
2018-07-27T09:44:02.373Z,95027.42
2018-07-27T09:46:31.789Z,95028.20
2018-07-27T09:49:01.698Z,95025.58
2018-07-27T09:51:30.640Z,95021.67
2018-07-27T09:53:59.520Z,95020.62
2018-07-27T09:56:28.224Z,95021.23
2018-07-27T09:58:57.209Z,95010.92
2018-07-27T10:01:27.924Z,94995.47
2018-07-27T10:03:58.228Z,95004.00
2018-07-27T10:06:27.318Z,95002.76
2018-07-27T10:08:56.171Z,94870.55
2018-07-27T10:11:24.963Z,94996.63
2018-07-27T10:13:53.969Z,94991.94
2018-07-27T10:16:22.804Z,94907.91
2018-07-27T10:18:52.176Z,94993.61
2018-07-27T10:21:21.922Z,94992.67
2018-07-27T10:23:50.756Z,94990.00
2018-07-27T10:26:19.852Z,94981.58
2018-07-27T10:28:48.933Z,94983.59
2018-07-27T10:31:17.715Z,94992.09
2018-07-27T10:33:46.445Z,94976.78
2018-07-27T10:36:15.556Z,94987.05
2018-07-27T10:38:44.533Z,94974.09
2018-07-27T10:41:13.287Z,94974.00
2018-07-27T10:43:42.693Z,94966.97
2018-07-27T10:46:11.390Z,94959.70
2018-07-27T10:48:41.209Z,94951.83
2018-07-27T10:51:10.564Z,94953.98
2018-07-27T10:53:39.313Z,94951.25
2018-07-27T10:56:08.121Z,94940.18
2018-07-27T10:58:37.444Z,94946.26
2018-07-27T11:01:06.306Z,94937.23
2018-07-27T11:03:34.993Z,94934.50
2018-07-27T11:06:04.121Z,94946.61
2018-07-27T11:08:32.952Z,94943.80
2018-07-27T11:11:02.153Z,94942.30
2018-07-27T11:13:31.024Z,94940.64
2018-07-27T11:15:59.773Z,94934.03
2018-07-27T11:18:28.849Z,94937.57
2018-07-27T11:20:57.995Z,94930.77
2018-07-27T11:23:28.014Z,94939.99
2018-07-27T11:25:56.788Z,94940.64
2018-07-27T11:28:25.472Z,94937.05
2018-07-27T11:30:54.854Z,94925.05
2018-07-27T11:33:24.124Z,94926.23
2018-07-27T11:35:53.084Z,94922.17
2018-07-27T11:38:21.964Z,94928.77
2018-07-27T11:40:50.655Z,94919.57
2018-07-27T11:43:19.462Z,94919.94
2018-07-27T11:45:48.253Z,94923.74
2018-07-27T11:48:17.333Z,94921.06
2018-07-27T11:50:46.168Z,94915.76
2018-07-27T11:53:15.051Z,94911.07
2018-07-27T11:55:44.431Z,94901.30
2018-07-27T11:58:13.900Z,94899.14
2018-07-27T12:00:42.720Z,94895.98
2018-07-27T12:03:11.519Z,94914.42
2018-07-27T12:05:40.340Z,94884.63
2018-07-27T12:08:09.172Z,94889.02
2018-07-27T12:10:38.310Z,94883.84
2018-07-27T12:13:07.336Z,94883.88
2018-07-27T12:15:36.420Z,94884.21
2018-07-27T12:18:05.257Z,94884.88
2018-07-27T12:20:34.027Z,94885.33
2018-07-27T12:23:02.809Z,94889.64
2018-07-27T12:25:32.033Z,94888.17
2018-07-27T12:28:00.759Z,94894.39
2018-07-27T12:30:30.077Z,94886.58
2018-07-27T12:32:58.816Z,94892.80
2018-07-27T12:35:27.657Z,94890.62
2018-07-27T12:37:56.822Z,94889.91
2018-07-27T12:40:25.554Z,94895.42
2018-07-27T12:42:54.365Z,94892.84
2018-07-27T12:45:23.096Z,94899.20
2018-07-27T12:47:51.922Z,94907.66
2018-07-27T12:50:20.778Z,94899.61
2018-07-27T12:52:49.488Z,94904.08
2018-07-27T12:55:18.311Z,94893.71
2018-07-27T12:57:46.983Z,94894.46
2018-07-27T13:00:15.630Z,94888.23
2018-07-27T13:02:44.320Z,94892.88
2018-07-27T13:05:12.991Z,94765.09
2018-07-27T13:07:42.177Z,94888.02
2018-07-27T13:10:11.212Z,94889.90
2018-07-27T13:12:39.977Z,94891.91
2018-07-27T13:15:09.514Z,94892.27
2018-07-27T13:17:38.436Z,94879.94
2018-07-27T13:20:07.639Z,94869.70
2018-07-27T13:22:37.084Z,94862.83
2018-07-27T13:25:05.829Z,94855.25
2018-07-27T13:27:34.509Z,94863.23
2018-07-27T13:30:04.734Z,94864.62
2018-07-27T13:32:33.645Z,94879.78
2018-07-27T13:35:02.421Z,94870.83
2018-07-27T13:37:32.862Z,94874.14
2018-07-27T13:40:03.073Z,94881.60
2018-07-27T13:42:33.252Z,94880.70
2018-07-27T13:45:02.237Z,94886.29
2018-07-27T13:47:30.952Z,94882.62
2018-07-27T13:49:59.633Z,94893.34
2018-07-27T13:52:28.377Z,94892.06
2018-07-27T13:54:57.075Z,94900.55
2018-07-27T13:57:26.044Z,94900.16
2018-07-27T13:59:54.717Z,94907.08
2018-07-27T14:02:23.432Z,94914.38
2018-07-27T14:04:52.125Z,94913.77
2018-07-27T14:07:20.830Z,94900.09
2018-07-27T14:09:49.551Z,94911.32
2018-07-27T14:12:18.280Z,94917.81
2018-07-27T14:14:46.964Z,94911.30
2018-07-27T14:17:15.646Z,94909.96
2018-07-27T14:19:44.294Z,94917.89
2018-07-27T14:22:12.991Z,94915.04
2018-07-27T14:24:41.989Z,94915.95
2018-07-27T14:27:10.950Z,94920.20
2018-07-27T14:29:39.623Z,94909.91
2018-07-27T14:32:08.313Z,94914.84
2018-07-27T14:34:37.002Z,94911.38
2018-07-27T14:37:06.059Z,94903.63
2018-07-27T14:39:34.797Z,94899.55
2018-07-27T14:42:03.475Z,94900.78
2018-07-27T14:44:32.304Z,94902.22
2018-07-27T14:47:00.954Z,94915.80
2018-07-27T14:49:29.711Z,94922.16
2018-07-27T14:51:58.470Z,94921.84
2018-07-27T14:54:27.230Z,94912.77
2018-07-27T14:56:55.938Z,94913.61
2018-07-27T14:59:24.707Z,94900.78
2018-07-27T15:01:53.425Z,94907.42
2018-07-27T15:04:22.142Z,94903.09
2018-07-27T15:06:50.855Z,94896.12
2018-07-27T15:09:19.513Z,94894.05
2018-07-27T15:11:48.194Z,94893.09
2018-07-27T15:14:16.871Z,94890.36
2018-07-27T15:16:45.859Z,94894.31
2018-07-27T15:19:15.440Z,94898.36
2018-07-27T15:21:45.218Z,94900.61
2018-07-27T15:24:14.788Z,94908.63
2018-07-27T15:26:43.786Z,94919.24
2018-07-27T15:29:12.773Z,94923.30
2018-07-27T15:31:43.065Z,94923.11
2018-07-27T15:34:12.383Z,94922.34
2018-07-27T15:36:41.711Z,94919.60
2018-07-27T15:39:11.147Z,94923.80
2018-07-27T15:41:40.011Z,94923.28
2018-07-27T15:44:08.983Z,94921.55
2018-07-27T15:46:39.142Z,94925.36
2018-07-27T15:49:08.335Z,94936.04
2018-07-27T15:51:38.234Z,94933.95
2018-07-27T15:54:07.391Z,94934.66
2018-07-27T15:56:36.523Z,94933.95
2018-07-27T15:59:05.890Z,94935.51
2018-07-27T16:01:35.782Z,94932.80
2018-07-27T16:04:05.746Z,94930.23
2018-07-27T16:06:34.657Z,94937.26
2018-07-27T16:09:03.591Z,94928.79
2018-07-27T16:11:32.415Z,94932.37
2018-07-27T16:14:01.309Z,94934.88
2018-07-27T16:16:30.058Z,94939.02
2018-07-27T16:18:58.958Z,94933.17
2018-07-27T16:21:27.650Z,94937.56
2018-07-27T16:23:56.650Z,94930.02
2018-07-27T16:26:26.114Z,94940.89
2018-07-27T16:28:54.947Z,94941.27
2018-07-27T16:31:24.186Z,94939.11
2018-07-27T16:33:53.043Z,94954.22
2018-07-27T16:36:22.138Z,94947.67
2018-07-27T16:38:50.930Z,94955.25
2018-07-27T16:41:19.794Z,94953.86
2018-07-27T16:43:48.798Z,94949.38
2018-07-27T16:46:17.810Z,94957.79
2018-07-27T16:48:46.614Z,94961.16
2018-07-27T16:51:15.546Z,94965.49
2018-07-27T16:53:44.270Z,94962.99
2018-07-27T16:56:13.483Z,94966.36
2018-07-27T16:58:42.119Z,94972.93
2018-07-27T17:01:10.878Z,94970.95
2018-07-27T17:03:39.591Z,94969.84
2018-07-27T17:06:08.324Z,94969.69
2018-07-27T17:08:36.978Z,94973.13
2018-07-27T17:11:05.674Z,94966.56
2018-07-27T17:13:34.388Z,94963.45
2018-07-27T17:16:03.483Z,94970.70
2018-07-27T17:18:32.744Z,94972.42
2018-07-27T17:21:01.621Z,94978.05
2018-07-27T17:23:30.599Z,94987.46
2018-07-27T17:25:59.371Z,94990.90
2018-07-27T17:28:28.160Z,94989.44
2018-07-27T17:30:56.899Z,94995.75
2018-07-27T17:33:25.882Z,95003.02
2018-07-27T17:35:54.886Z,95000.33
2018-07-27T17:38:23.656Z,95002.05
2018-07-27T17:40:53.185Z,94999.34
2018-07-27T17:43:22.425Z,95007.69
2018-07-27T17:45:51.178Z,95006.56
2018-07-27T17:48:19.904Z,94996.07
2018-07-27T17:50:48.976Z,94998.40
2018-07-27T17:53:17.639Z,94997.61
2018-07-27T17:55:46.390Z,94999.38
2018-07-27T17:58:16.202Z,95001.52
2018-07-27T18:00:45.010Z,95000.43
2018-07-27T18:03:13.713Z,95012.95
2018-07-27T18:05:42.371Z,95011.77
2018-07-27T18:08:11.110Z,95006.31
2018-07-27T18:10:39.750Z,95003.63
2018-07-27T18:13:08.735Z,95013.12
2018-07-27T18:15:38.663Z,95011.56
2018-07-27T18:18:07.725Z,95017.66
2018-07-27T18:20:36.400Z,95022.22
2018-07-27T18:23:05.297Z,95024.02
2018-07-27T18:25:34.004Z,95017.27
2018-07-27T18:28:03.118Z,95010.86
2018-07-27T18:30:31.825Z,95015.81
2018-07-27T18:33:00.517Z,95010.08
2018-07-27T18:35:29.182Z,95011.50
2018-07-27T18:37:57.862Z,95016.48
2018-07-27T18:40:26.778Z,95024.55
2018-07-27T18:42:55.739Z,95027.89
2018-07-27T18:45:24.390Z,95022.63
2018-07-27T18:47:53.106Z,95019.40
2018-07-27T18:50:21.789Z,95018.21
2018-07-27T18:52:50.589Z,95028.48
2018-07-27T18:55:19.238Z,95016.99
2018-07-27T18:57:47.903Z,95027.84
2018-07-27T19:00:16.660Z,95035.86
2018-07-27T19:02:45.315Z,95036.45
2018-07-27T19:05:14.003Z,95033.86
2018-07-27T19:07:42.693Z,95038.73
2018-07-27T19:10:11.316Z,95039.67
2018-07-27T19:12:39.976Z,95044.70
2018-07-27T19:15:09.562Z,95045.84
2018-07-27T19:17:38.779Z,95047.84
2018-07-27T19:20:07.496Z,95044.84
2018-07-27T19:22:36.174Z,95052.55
2018-07-27T19:25:04.874Z,95050.22
2018-07-27T19:27:33.598Z,95054.16
2018-07-27T19:30:02.383Z,95054.90
2018-07-27T19:32:31.074Z,95060.34
2018-07-27T19:35:00.005Z,95063.78
2018-07-27T19:37:28.662Z,95061.45
2018-07-27T19:39:57.738Z,95060.08
2018-07-27T19:42:27.750Z,95052.74
2018-07-27T19:44:57.247Z,95044.63
2018-07-27T19:47:26.058Z,95052.13
2018-07-27T19:49:54.830Z,95049.25
2018-07-27T19:52:23.493Z,95057.02
2018-07-27T19:54:52.180Z,95044.55
2018-07-27T19:57:20.863Z,95036.45
2018-07-27T19:59:49.570Z,95033.73
2018-07-27T20:02:18.230Z,95038.87
2018-07-27T20:04:46.905Z,95031.45
2018-07-27T20:07:15.583Z,95029.34
2018-07-27T20:09:44.232Z,95024.44
2018-07-27T20:12:12.912Z,95031.09
2018-07-27T20:14:41.583Z,95038.55
2018-07-27T20:17:10.319Z,95027.98
2018-07-27T20:19:39.053Z,95039.16
2018-07-27T20:22:07.716Z,95042.50
2018-07-27T20:24:36.391Z,95042.73
2018-07-27T20:27:05.275Z,95046.30
2018-07-27T20:29:33.939Z,95047.66
2018-07-27T20:32:02.647Z,95043.74
2018-07-27T20:34:31.325Z,94727.98
2018-07-27T20:37:00.414Z,95054.89
2018-07-27T20:39:29.443Z,95044.13
2018-07-27T20:41:58.279Z,95046.13
2018-07-27T20:44:27.899Z,95037.48
2018-07-27T20:46:56.815Z,95036.85
2018-07-27T20:49:25.799Z,95035.56
2018-07-27T20:51:54.796Z,95030.80
2018-07-27T20:54:23.947Z,95030.57
2018-07-27T20:56:52.703Z,95026.09
2018-07-27T20:59:21.727Z,95022.97
2018-07-27T21:01:50.830Z,95014.81
2018-07-27T21:04:19.839Z,95013.91
2018-07-27T21:06:49.222Z,95007.19
2018-07-27T21:09:17.987Z,95002.77
2018-07-27T21:11:46.982Z,95000.78
2018-07-27T21:14:15.792Z,94992.34
2018-07-27T21:16:44.661Z,94992.29
2018-07-27T21:19:13.338Z,94989.38
2018-07-27T21:21:42.399Z,94991.90
2018-07-27T21:24:11.140Z,94990.23
2018-07-27T21:26:39.799Z,94984.16
2018-07-27T21:29:08.523Z,94979.05
2018-07-27T21:31:37.191Z,94977.06
2018-07-27T21:34:05.966Z,94975.27
2018-07-27T21:36:35.116Z,94977.42
2018-07-27T21:39:04.753Z,94980.39
2018-07-27T21:41:33.531Z,94979.61
2018-07-27T21:44:02.327Z,94988.05
2018-07-27T21:46:31.521Z,94988.22
2018-07-27T21:49:00.302Z,94983.87
2018-07-27T21:51:29.488Z,94984.84
2018-07-27T21:53:58.298Z,94979.36
2018-07-27T21:56:27.585Z,94977.19
2018-07-27T21:58:56.779Z,94973.66
2018-07-27T22:01:26.577Z,94975.46
2018-07-27T22:03:55.621Z,94974.86
2018-07-27T22:06:24.565Z,94979.37
2018-07-27T22:08:53.738Z,94982.48
2018-07-27T22:11:22.845Z,94988.84
2018-07-27T22:13:51.815Z,94992.09
2018-07-27T22:16:20.549Z,94996.39
2018-07-27T22:18:49.749Z,94990.42
2018-07-27T22:21:18.836Z,94995.55
2018-07-27T22:23:48.096Z,94995.02
2018-07-27T22:26:17.320Z,94995.23
2018-07-27T22:28:46.050Z,94987.64
2018-07-27T22:31:15.374Z,94987.64
2018-07-27T22:33:44.005Z,94992.77
2018-07-27T22:36:12.700Z,94987.49
2018-07-27T22:38:41.307Z,94989.11
2018-07-27T22:41:10.448Z,94990.53
2018-07-27T22:43:39.350Z,94986.67
2018-07-27T22:46:08.070Z,94981.21
2018-07-27T22:48:36.886Z,94983.62
2018-07-27T22:51:06.062Z,94982.62
2018-07-27T22:53:35.175Z,94983.03
2018-07-27T22:56:04.175Z,94983.89
2018-07-27T22:58:33.573Z,94982.31
2018-07-27T23:01:02.303Z,94982.11
2018-07-27T23:03:30.919Z,94977.63
2018-07-27T23:05:59.629Z,94982.94
2018-07-27T23:08:28.751Z,94996.59
2018-07-27T23:10:57.771Z,94988.58
2018-07-27T23:13:26.529Z,94989.16
2018-07-27T23:15:55.201Z,94987.21
2018-07-27T23:18:24.480Z,94982.12
2018-07-27T23:20:53.521Z,94978.22
2018-07-27T23:23:22.269Z,94976.47
2018-07-27T23:25:50.850Z,94976.23
2018-07-27T23:28:19.617Z,94982.08
2018-07-27T23:30:48.339Z,94973.11
2018-07-27T23:33:17.281Z,94970.20
2018-07-27T23:35:46.122Z,94976.27
2018-07-27T23:38:14.789Z,94987.42
2018-07-27T23:40:43.627Z,94986.66
2018-07-27T23:43:12.315Z,94983.52
2018-07-27T23:45:41.273Z,94974.34
2018-07-27T23:48:10.021Z,94985.30
2018-07-27T23:50:39.036Z,94983.69
2018-07-27T23:53:07.850Z,94983.48
2018-07-27T23:55:36.748Z,94977.87
2018-07-27T23:58:05.745Z,94974.17
